Impacts TAF Board INFO
FOR SITUATIONAL AWARENESS. NOT TO BE USED FOR FLIGHT PLANNING PURPOSES.
IDs:

KMEM - Memphis Intl, TN, US

Issued at 0302 UTC 16 Aug 2018
Updated at 0307 UTC 16 Aug 2018
Potential Impact None Slight Moderate High
Time0254Z 16/04Z 16/05Z 16/06Z 16/07Z 16/08Z 16/09Z 16/10Z 16/11Z 16/12Z 16/13Z 16/14Z 16/15Z 16/16Z>>
Type OBS PRVL PRVL PRVL PRVL PRVL PRVL PRVL PRVL PRVL PRVL PRVL PRVL PRVL
VIS 10 >6 >6 >6 >6 >6 >6 >6 >6 >6 >6 >6 >6 >6
CIG 130 90 90 90 90 90 60 60 60 40 40 40 40 40
Cover OVC BKN BKN BKN BKN BKN OVC OVC OVC OVC OVC OVC OVC OVC
FltCat VFR VFR VFR VFR VFR VFR VFR VFR VFR VFR VFR VFR VFR VFR
WX -RA VCSH VCSH VCSH VCSH VCSH VCSH VCSH VCSH VCTS VCTS VCTS VCTS VCTS
WDir 180 190 190 190 190 190 200 200 200 220 220 220 220 220
WSpd 5 4 4 4 4 4 7 7 7 10 10 10 10 10
WGst -- -- -- -- -- -- -- -- -- -- -- -- -- --

Raw TAF
KMEM 160302Z 1603/1706 19004KT P6SM VCSH BKN090 BKN120
  FM160900 20007KT P6SM VCSH BKN060 OVC120
  FM161200 22010KT P6SM VCTS BKN040CB OVC100
  FM161700 22010KT P6SM VCSH BKN040 OVC150
  FM162100 22009KT P6SM VCTS BKN040CB OVC250
  FM170200 19007KT P6SM BKN080 BKN250


Raw METAR
KMEM 160254Z 18005KT 10SM -RA FEW100 OVC130 29/23 A2999 RMK AO2 RAB47 SLP149 P0000 60000 T02940228 53009
KMEM 160154Z 19004KT 10SM BKN120 OVC250 29/23 A2997 RMK AO2 SLP144 T02940228
KMEM 160054Z 21004KT 10SM BKN150 BKN250 30/23 A2996 RMK AO2 SLP142 T03000228

METAR Board
Radar Display
Forecast Discussion

FOR SITUATIONAL AWARENESS. NOT TO BE USED FOR FLIGHT PLANNING PURPOSES.